Mc Grath, Minnesota
Current Conditions -  °F | °C
As of 11:27 AM on Thursday 30 Oct 2014 (Local Time) from KHZX Reporting Station
Overcast Overcast  
Wind Chill: 32°   Ceiling: 4500
Heat Index: 37°   Visibility: 10mi
Dew Point: 34°   Wind: 7mph
Humidity: 87%   Direction: 340°NNW
Pressure: 30.12"   Gusts: NA
Location:  46.3008°N, 93.2513°W
Report Text: KHZX 301627Z AUTO 34006KT 10SM SCT014 BKN045 OVC070 03/01 A3012 RMK AO2
Loading
Personal Weather Stations






























Interactive Weather Map
Tropical Storm Tracking
New forecast layout! Learn more

10-Day Weather Forecast

Advertisements
Track Severe Weather on mobile